createdAt,value
2018-01-10T00:00:28.374Z,7.78
2018-01-10T00:01:37.158Z,7.82
2018-01-10T00:02:46.207Z,7.83
2018-01-10T00:03:55.252Z,7.88
2018-01-10T00:05:03.770Z,7.89
2018-01-10T00:06:12.557Z,7.77
2018-01-10T00:07:21.341Z,7.85
2018-01-10T00:08:30.122Z,7.83
2018-01-10T00:09:38.639Z,7.89
2018-01-10T00:10:47.428Z,7.86
2018-01-10T00:11:56.210Z,7.91
2018-01-10T00:13:05.259Z,7.85
2018-01-10T00:14:14.306Z,7.91
2018-01-10T00:15:22.825Z,7.86
2018-01-10T00:16:31.871Z,7.88
2018-01-10T00:17:41.179Z,7.91
2018-01-10T00:18:49.960Z,7.89
2018-01-10T00:19:58.740Z,7.86
2018-01-10T00:21:07.520Z,7.8
2018-01-10T00:22:16.304Z,7.85
2018-01-10T00:23:24.824Z,7.8
2018-01-10T00:24:33.340Z,7.83
2018-01-10T00:25:42.393Z,7.82
2018-01-10T00:26:51.175Z,7.91
2018-01-10T00:28:08.426Z,7.91
2018-01-10T00:29:17.475Z,7.98
2018-01-10T00:30:26.261Z,7.82
2018-01-10T00:31:35.308Z,7.89
2018-01-10T00:32:44.093Z,7.95
2018-01-10T00:33:52.880Z,7.83
2018-01-10T00:35:01.927Z,7.86
2018-01-10T00:36:10.446Z,7.91
2018-01-10T00:37:19.814Z,7.96
2018-01-10T00:38:28.337Z,7.88
2018-01-10T00:39:37.388Z,7.93
2018-01-10T00:40:46.433Z,7.92
2018-01-10T00:41:55.213Z,7.92
2018-01-10T00:43:04.267Z,7.96
2018-01-10T00:44:12.784Z,7.96
2018-01-10T00:45:21.583Z,7.98
2018-01-10T00:46:30.366Z,8.01
2018-01-10T00:47:39.150Z,7.96
2018-01-10T00:48:48.198Z,7.96
2018-01-10T00:49:56.981Z,7.98
2018-01-10T00:51:05.498Z,7.95
2018-01-10T00:52:14.287Z,8.07
2018-01-10T00:53:23.338Z,8.03
2018-01-10T00:54:32.657Z,8.09
2018-01-10T00:55:41.445Z,8.04
2018-01-10T00:56:50.225Z,8.04
2018-01-10T00:57:59.533Z,8.04
2018-01-10T00:59:08.580Z,8.01
2018-01-10T01:00:17.095Z,8.01
2018-01-10T01:01:25.880Z,7.96
2018-01-10T01:02:34.924Z,8.01
2018-01-10T01:03:43.969Z,8.01
2018-01-10T01:04:53.028Z,7.93
2018-01-10T01:06:01.833Z,7.99
2018-01-10T01:07:10.879Z,8.06
2018-01-10T01:08:19.397Z,8.03
2018-01-10T01:09:27.915Z,7.99
2018-01-10T01:10:36.698Z,8.04
2018-01-10T01:11:45.744Z,7.99
2018-01-10T01:12:54.794Z,8.01
2018-01-10T01:14:03.313Z,8.07
2018-01-10T01:15:12.096Z,8.07
2018-01-10T01:16:21.145Z,8.04
2018-01-10T01:17:30.203Z,8.01
2018-01-10T01:18:38.718Z,8.04
2018-01-10T01:19:47.764Z,7.99
2018-01-10T01:20:56.282Z,7.96
2018-01-10T01:22:05.592Z,8.01
2018-01-10T01:23:14.375Z,7.98
2018-01-10T01:24:23.418Z,7.99
2018-01-10T01:25:32.485Z,7.98
2018-01-10T01:26:41.268Z,8.04
2018-01-10T01:27:50.316Z,8.01
2018-01-10T01:28:59.094Z,7.98
2018-01-10T01:30:07.876Z,7.95
2018-01-10T01:31:16.927Z,8.06
2018-01-10T01:32:26.235Z,8.03
2018-01-10T01:33:35.016Z,8.04
2018-01-10T01:34:44.334Z,8.04
2018-01-10T01:35:53.382Z,8.01
2018-01-10T01:37:02.430Z,8.03
2018-01-10T01:38:11.216Z,7.96
2018-01-10T01:39:19.995Z,7.96
2018-01-10T01:40:29.038Z,8.07
2018-01-10T01:41:37.557Z,8.04
2018-01-10T01:42:46.603Z,8.04
2018-01-10T01:43:55.652Z,8.01
2018-01-10T01:45:04.965Z,8.04
2018-01-10T01:46:13.484Z,8.03
2018-01-10T01:47:22.005Z,8.14
2018-01-10T01:48:30.799Z,8.04
2018-01-10T01:49:40.112Z,8.01
2018-01-10T01:50:48.893Z,8.04
2018-01-10T01:51:57.674Z,8.01
2018-01-10T01:53:06.463Z,8.06
2018-01-10T01:54:15.255Z,8.07
2018-01-10T01:55:24.048Z,8.09
2018-01-10T01:56:32.575Z,8.01
2018-01-10T01:57:41.105Z,8.04
2018-01-10T01:58:49.639Z,8.09
2018-01-10T01:59:58.430Z,8.04
2018-01-10T02:01:07.224Z,8.1
2018-01-10T02:02:15.756Z,8.06
2018-01-10T02:03:24.551Z,8.07
2018-01-10T02:04:33.081Z,8.04
2018-01-10T02:05:41.874Z,8.04
2018-01-10T02:06:50.674Z,8.06
2018-01-10T02:08:00.006Z,8.04
2018-01-10T02:09:08.812Z,8.07
2018-01-10T02:10:17.612Z,8.04
2018-01-10T02:11:26.134Z,8.04
2018-01-10T02:12:34.662Z,8.13
2018-01-10T02:13:43.454Z,8.04
2018-01-10T02:14:52.244Z,8.04
2018-01-10T02:16:01.050Z,8.09
2018-01-10T02:17:09.596Z,8.07
2018-01-10T02:18:18.652Z,8.06
2018-01-10T02:19:27.832Z,8.07
2018-01-10T02:20:36.626Z,8.13
2018-01-10T02:21:45.417Z,8.09
2018-01-10T02:22:53.947Z,8.06
2018-01-10T02:24:02.475Z,8.06
2018-01-10T02:25:11.542Z,8.17
2018-01-10T02:26:20.597Z,8.13
2018-01-10T02:27:29.389Z,8.1
2018-01-10T02:28:38.204Z,8.11
2018-01-10T02:29:47.008Z,8.17
2018-01-10T02:30:56.068Z,8.04
2018-01-10T02:32:04.600Z,8.09
2018-01-10T02:33:13.664Z,8.21
2018-01-10T02:34:22.197Z,8.04
2018-01-10T02:35:31.266Z,8.21
2018-01-10T02:36:40.056Z,8.1
2018-01-10T02:37:48.582Z,8.11
2018-01-10T02:38:57.109Z,8.14
2018-01-10T02:40:06.166Z,8.11
2018-01-10T02:41:14.694Z,8.16
2018-01-10T02:42:23.226Z,8.19
2018-01-10T02:43:32.282Z,8.1
2018-01-10T02:44:41.077Z,8.11
2018-01-10T02:45:50.145Z,8.1
2018-01-10T02:46:58.680Z,8.13
2018-01-10T02:48:07.473Z,8.13
2018-01-10T02:49:16.002Z,8.17
2018-01-10T02:50:24.794Z,8.11
2018-01-10T02:51:33.851Z,8.1
2018-01-10T02:52:42.444Z,8.16
2018-01-10T02:53:54.479Z,8.16
2018-01-10T02:55:03.859Z,8.1
2018-01-10T02:56:12.721Z,8.11
2018-01-10T02:57:21.514Z,8.11
2018-01-10T02:58:30.310Z,8.11
2018-01-10T02:59:38.836Z,8.1
2018-01-10T03:00:47.362Z,8.13
2018-01-10T03:01:56.425Z,8.21
2018-01-10T03:03:04.953Z,8.11
2018-01-10T03:04:13.484Z,8.1
2018-01-10T03:05:22.296Z,8.13
2018-01-10T03:06:31.359Z,8.19
2018-01-10T03:07:40.153Z,8.11
2018-01-10T03:08:48.684Z,8.13
2018-01-10T03:09:57.479Z,8.21
2018-01-10T03:11:06.810Z,8.19
2018-01-10T03:12:15.604Z,8.16
2018-01-10T03:13:24.132Z,8.14
2018-01-10T03:14:32.655Z,8.13
2018-01-10T03:15:41.712Z,8.19
2018-01-10T03:16:51.041Z,8.13
2018-01-10T03:17:59.836Z,8.11
2018-01-10T03:19:08.363Z,8.14
2018-01-10T03:20:16.895Z,8.19
2018-01-10T03:21:25.419Z,8.19
2018-01-10T03:22:34.475Z,8.19
2018-01-10T03:23:43.590Z,8.21
2018-01-10T03:24:52.119Z,8.14
2018-01-10T03:26:01.177Z,8.24
2018-01-10T03:27:09.705Z,8.25
2018-01-10T03:28:18.234Z,8.16
2018-01-10T03:29:26.761Z,8.21
2018-01-10T03:30:35.562Z,8.28
2018-01-10T03:31:44.631Z,8.26
2018-01-10T03:32:53.162Z,8.25
2018-01-10T03:34:02.278Z,8.22
2018-01-10T03:35:11.070Z,8.26
2018-01-10T03:36:19.594Z,8.25
2018-01-10T03:37:28.387Z,8.26
2018-01-10T03:38:37.182Z,8.31
2018-01-10T03:39:45.975Z,8.25
2018-01-10T03:40:54.780Z,8.24
2018-01-10T03:42:03.576Z,8.29
2018-01-10T03:43:12.376Z,8.28
2018-01-10T03:44:20.903Z,8.31
2018-01-10T03:45:29.430Z,8.25
2018-01-10T03:46:37.953Z,8.28
2018-01-10T03:47:46.748Z,8.24
2018-01-10T03:48:55.278Z,8.28
2018-01-10T03:50:03.907Z,8.28
2018-01-10T03:51:12.736Z,8.34
2018-01-10T03:52:21.259Z,8.28
2018-01-10T03:53:29.783Z,8.28
2018-01-10T03:54:39.157Z,8.31
2018-01-10T03:55:47.946Z,8.29
2018-01-10T03:56:57.002Z,8.31
2018-01-10T03:58:05.529Z,8.35
2018-01-10T03:59:14.326Z,8.31
2018-01-10T04:00:23.126Z,8.34
2018-01-10T04:01:32.231Z,8.36
2018-01-10T04:02:40.759Z,8.26
2018-01-10T04:03:50.086Z,8.35
2018-01-10T04:04:58.615Z,8.39
2018-01-10T04:06:07.147Z,8.34
2018-01-10T04:07:16.216Z,8.36
2018-01-10T04:08:25.277Z,8.32
2018-01-10T04:09:33.804Z,8.39
2018-01-10T04:10:42.334Z,8.35
2018-01-10T04:11:51.131Z,8.35
2018-01-10T04:12:59.923Z,8.47
2018-01-10T04:14:08.451Z,8.36
2018-01-10T04:15:17.248Z,8.4
2018-01-10T04:16:26.041Z,8.36
2018-01-10T04:17:34.574Z,8.39
2018-01-10T04:18:43.106Z,8.49
2018-01-10T04:19:51.893Z,8.44
2018-01-10T04:21:00.946Z,8.39
2018-01-10T04:22:09.473Z,8.43
2018-01-10T04:23:18.001Z,8.43
2018-01-10T04:24:26.791Z,8.42
2018-01-10T04:25:35.580Z,8.43
2018-01-10T04:26:44.376Z,8.42
2018-01-10T04:27:53.170Z,8.4
2018-01-10T04:29:01.963Z,8.43
2018-01-10T04:30:10.765Z,8.36
2018-01-10T04:31:19.562Z,8.28
2018-01-10T04:32:28.354Z,8.29
2018-01-10T04:33:37.686Z,8.35
2018-01-10T04:34:46.210Z,8.46
2018-01-10T04:35:55.002Z,8.39
2018-01-10T04:37:04.065Z,8.47
2018-01-10T04:38:13.126Z,8.49
2018-01-10T04:39:22.183Z,8.36
2018-01-10T04:40:30.977Z,8.36
2018-01-10T04:41:39.775Z,8.43
2018-01-10T04:42:48.301Z,8.42
2018-01-10T04:43:57.089Z,8.47
2018-01-10T04:45:06.686Z,8.36
2018-01-10T04:46:15.483Z,8.46
2018-01-10T04:47:24.280Z,8.49
2018-01-10T04:48:33.605Z,8.52
2018-01-10T04:49:42.130Z,8.39
2018-01-10T04:50:50.916Z,8.4
2018-01-10T04:51:59.445Z,8.47
2018-01-10T04:53:08.502Z,8.46
2018-01-10T04:54:17.336Z,8.4
2018-01-10T04:55:26.860Z,8.4
2018-01-10T04:56:35.658Z,8.5
2018-01-10T04:57:44.714Z,8.49
2018-01-10T04:58:53.769Z,8.49
2018-01-10T05:00:02.305Z,8.39
2018-01-10T05:01:11.097Z,8.42
2018-01-10T05:02:20.157Z,8.4
2018-01-10T05:03:28.943Z,8.44
2018-01-10T05:04:37.466Z,8.28
2018-01-10T05:05:46.255Z,8.4
2018-01-10T05:06:55.059Z,8.35
2018-01-10T05:08:03.851Z,8.42
2018-01-10T05:09:12.915Z,8.36
2018-01-10T05:10:21.979Z,8.32
2018-01-10T05:11:31.035Z,8.39
2018-01-10T05:12:39.561Z,8.35
2018-01-10T05:13:48.093Z,8.4
2018-01-10T05:14:56.887Z,8.36
2018-01-10T05:16:05.950Z,8.32
2018-01-10T05:17:15.017Z,8.36
2018-01-10T05:18:24.081Z,8.35
2018-01-10T05:19:33.156Z,8.32
2018-01-10T05:20:42.212Z,8.35
2018-01-10T05:21:51.003Z,8.35
2018-01-10T05:22:59.529Z,8.32
2018-01-10T05:24:08.066Z,8.36
2018-01-10T05:25:17.124Z,8.31
2018-01-10T05:26:25.922Z,8.35
2018-01-10T05:27:34.716Z,8.34
2018-01-10T05:28:43.508Z,8.35
2018-01-10T05:29:52.567Z,8.35
2018-01-10T05:31:01.631Z,8.36
2018-01-10T05:32:10.695Z,8.35
2018-01-10T05:33:19.752Z,8.31
2018-01-10T05:34:28.541Z,8.35
2018-01-10T05:35:37.333Z,8.4
2018-01-10T05:36:45.863Z,8.42
2018-01-10T05:37:54.390Z,8.36
2018-01-10T05:39:03.454Z,8.35
2018-01-10T05:40:12.250Z,8.36
2018-01-10T05:41:21.045Z,8.4
2018-01-10T05:42:29.833Z,8.42
2018-01-10T05:43:38.631Z,8.39
2018-01-10T05:44:47.157Z,8.42
2018-01-10T05:45:56.211Z,8.36
2018-01-10T05:47:05.001Z,8.43
2018-01-10T05:48:13.528Z,8.44
2018-01-10T05:49:22.850Z,8.36
2018-01-10T05:50:31.644Z,8.43
2018-01-10T05:51:40.703Z,8.35
2018-01-10T05:52:50.293Z,8.43
2018-01-10T05:53:59.095Z,8.34
2018-01-10T05:55:07.887Z,8.35
2018-01-10T05:56:16.410Z,8.46
2018-01-10T05:57:25.462Z,8.34
2018-01-10T05:58:33.990Z,8.42
2018-01-10T05:59:42.782Z,8.4
2018-01-10T06:00:51.844Z,8.39
2018-01-10T06:02:00.377Z,8.43
2018-01-10T06:03:09.176Z,8.43
2018-01-10T06:04:17.976Z,8.39
2018-01-10T06:05:27.302Z,8.43
2018-01-10T06:06:35.830Z,8.43
2018-01-10T06:07:44.888Z,8.43
2018-01-10T06:08:53.684Z,8.54
2018-01-10T06:10:02.501Z,8.58
2018-01-10T06:11:11.025Z,8.5
2018-01-10T06:12:19.819Z,8.52
2018-01-10T06:13:28.881Z,8.43
2018-01-10T06:14:37.674Z,8.53
2018-01-10T06:15:46.735Z,8.57
2018-01-10T06:16:55.262Z,8.47
2018-01-10T06:18:04.053Z,8.52
2018-01-10T06:19:12.842Z,8.54
2018-01-10T06:20:21.370Z,8.53
2018-01-10T06:21:30.163Z,8.53
2018-01-10T06:22:38.697Z,8.54
2018-01-10T06:23:47.489Z,8.58
2018-01-10T06:24:56.009Z,8.53
2018-01-10T06:26:04.536Z,8.52
2018-01-10T06:27:13.326Z,8.53
2018-01-10T06:28:22.123Z,8.53
2018-01-10T06:29:30.651Z,8.52
2018-01-10T06:30:39.717Z,8.5
2018-01-10T06:31:48.249Z,8.57
2018-01-10T06:32:57.040Z,8.54
2018-01-10T06:34:05.568Z,8.57
2018-01-10T06:35:14.363Z,8.54
2018-01-10T06:36:23.158Z,8.54
2018-01-10T06:37:31.689Z,8.62
2018-01-10T06:38:40.752Z,8.53
2018-01-10T06:39:49.546Z,8.65
2018-01-10T06:40:58.338Z,8.62
2018-01-10T06:42:06.868Z,8.64
2018-01-10T06:43:15.661Z,8.62
2018-01-10T06:44:24.454Z,8.67
2018-01-10T06:45:33.249Z,8.58
2018-01-10T06:46:42.049Z,8.69
2018-01-10T06:47:51.112Z,8.6
2018-01-10T06:48:59.905Z,8.6
2018-01-10T06:50:08.966Z,8.69
2018-01-10T06:51:17.759Z,8.54
2018-01-10T06:52:26.550Z,8.53
2018-01-10T06:53:35.350Z,8.54
2018-01-10T06:54:43.877Z,8.58
2018-01-10T06:55:52.668Z,8.5
2018-01-10T06:57:01.194Z,8.57
2018-01-10T06:58:10.022Z,8.53
2018-01-10T06:59:18.554Z,8.54
2018-01-10T07:00:27.087Z,8.52
2018-01-10T07:01:35.879Z,8.57
2018-01-10T07:02:44.668Z,8.42
2018-01-10T07:03:53.463Z,8.5
2018-01-10T07:05:02.520Z,8.42
2018-01-10T07:06:11.315Z,8.39
2018-01-10T07:07:20.107Z,8.43
2018-01-10T07:08:28.635Z,8.52
2018-01-10T07:09:37.698Z,8.42
2018-01-10T07:10:47.025Z,8.49
2018-01-10T07:11:55.819Z,8.44
2018-01-10T07:13:04.353Z,8.44
2018-01-10T07:14:12.880Z,8.4
2018-01-10T07:15:21.676Z,8.54
2018-01-10T07:16:30.467Z,8.53
2018-01-10T07:17:39.260Z,8.46
2018-01-10T07:18:48.319Z,8.49
2018-01-10T07:19:57.379Z,8.5
2018-01-10T07:21:06.174Z,8.49
2018-01-10T07:22:14.970Z,8.52
2018-01-10T07:23:23.495Z,8.57
2018-01-10T07:24:32.024Z,8.5
2018-01-10T07:25:40.822Z,8.54
2018-01-10T07:26:49.897Z,8.52
2018-01-10T07:27:58.960Z,8.52
2018-01-10T07:29:07.857Z,8.49
2018-01-10T07:30:16.689Z,8.52
2018-01-10T07:31:25.487Z,8.49
2018-01-10T07:32:34.077Z,8.53
2018-01-10T07:33:43.258Z,8.43
2018-01-10T07:34:52.320Z,8.53
2018-01-10T07:36:00.850Z,8.52
2018-01-10T07:37:09.648Z,8.43
2018-01-10T07:38:18.444Z,8.52
2018-01-10T07:39:27.502Z,8.47
2018-01-10T07:40:36.292Z,8.54
2018-01-10T07:41:45.092Z,8.4
2018-01-10T07:42:53.650Z,8.47
2018-01-10T07:44:02.184Z,8.52
2018-01-10T07:45:10.708Z,8.57
2018-01-10T07:46:19.502Z,8.57
2018-01-10T07:47:28.650Z,8.52
2018-01-10T07:48:37.717Z,8.49
2018-01-10T07:49:46.514Z,8.52
2018-01-10T07:50:55.044Z,8.54
2018-01-10T07:52:03.841Z,8.54
2018-01-10T07:53:12.379Z,8.53
2018-01-10T07:54:21.880Z,8.58
2018-01-10T07:55:31.113Z,8.54
2018-01-10T07:56:39.654Z,8.5
2018-01-10T07:57:48.200Z,8.49
2018-01-10T07:58:57.003Z,8.5
2018-01-10T08:00:05.802Z,8.46
2018-01-10T08:01:15.134Z,8.49
2018-01-10T08:02:23.669Z,8.5
2018-01-10T08:03:32.477Z,8.53
2018-01-10T08:04:41.536Z,8.52
2018-01-10T08:05:50.328Z,8.47
2018-01-10T08:06:59.397Z,8.5
2018-01-10T08:08:08.481Z,8.58
2018-01-10T08:09:17.015Z,8.54
2018-01-10T08:10:25.812Z,8.5
2018-01-10T08:11:35.147Z,8.58
2018-01-10T08:12:43.686Z,8.52
2018-01-10T08:13:52.234Z,8.49
2018-01-10T08:15:01.134Z,8.52
2018-01-10T08:16:10.087Z,8.5
2018-01-10T08:17:20.104Z,8.53
2018-01-10T08:18:30.262Z,8.57
2018-01-10T08:19:39.056Z,8.52
2018-01-10T08:20:47.588Z,8.62
2018-01-10T08:21:56.389Z,8.54
2018-01-10T08:23:05.204Z,8.57
2018-01-10T08:24:14.293Z,8.64
2018-01-10T08:25:22.828Z,8.62
2018-01-10T08:26:31.362Z,8.68
2018-01-10T08:27:40.086Z,8.61
2018-01-10T08:28:48.624Z,8.65
2018-01-10T08:29:57.682Z,8.62
2018-01-10T08:31:06.543Z,8.67
2018-01-10T08:32:15.073Z,8.64
2018-01-10T08:33:24.193Z,8.71
2018-01-10T08:34:32.995Z,8.68
2018-01-10T08:35:41.577Z,8.68
2018-01-10T08:36:50.374Z,8.71
2018-01-10T08:37:59.445Z,8.72
2018-01-10T08:39:07.970Z,8.77
2018-01-10T08:40:16.766Z,8.77
2018-01-10T08:41:25.604Z,8.69
2018-01-10T08:42:34.174Z,8.83
2018-01-10T08:43:43.234Z,8.79
2018-01-10T08:44:51.830Z,8.8
2018-01-10T08:46:00.357Z,8.94
2018-01-10T08:47:08.888Z,8.86
2018-01-10T08:48:17.693Z,8.89
2018-01-10T08:49:26.232Z,8.85
2018-01-10T08:50:35.033Z,8.8
2018-01-10T08:51:43.824Z,8.97
2018-01-10T08:52:52.625Z,8.92
2018-01-10T08:54:01.959Z,8.9
2018-01-10T08:55:10.762Z,8.9
2018-01-10T08:56:20.200Z,8.94
2018-01-10T08:57:30.193Z,8.97
2018-01-10T08:58:39.522Z,8.89
2018-01-10T08:59:48.282Z,8.89
2018-01-10T09:00:57.207Z,8.92
2018-01-10T09:02:05.759Z,8.92
2018-01-10T09:03:14.298Z,8.92
2018-01-10T09:04:22.864Z,8.9
2018-01-10T09:05:31.931Z,9.08
2018-01-10T09:06:40.472Z,8.92
2018-01-10T09:07:49.799Z,8.92
2018-01-10T09:08:58.975Z,8.94
2018-01-10T09:10:08.303Z,8.9
2018-01-10T09:11:17.109Z,8.87
2018-01-10T09:12:25.953Z,8.92
2018-01-10T09:13:35.040Z,8.9
2018-01-10T09:14:43.570Z,8.9
2018-01-10T09:15:52.377Z,9
2018-01-10T09:17:00.903Z,8.95
2018-01-10T09:18:09.694Z,8.92
2018-01-10T09:19:18.224Z,8.82
2018-01-10T09:20:27.059Z,8.85
2018-01-10T09:21:35.860Z,8.82
2018-01-10T09:22:44.871Z,8.94
2018-01-10T09:23:53.470Z,8.87
2018-01-10T09:25:02.291Z,8.82
2018-01-10T09:26:11.350Z,8.85
2018-01-10T09:27:20.445Z,8.89
2018-01-10T09:28:29.531Z,8.9
2018-01-10T09:29:38.613Z,8.89
2018-01-10T09:30:47.681Z,8.95
2018-01-10T09:31:56.480Z,8.97
2018-01-10T09:33:05.290Z,8.92
2018-01-10T09:34:14.621Z,9.03
2018-01-10T09:35:23.156Z,8.94
2018-01-10T09:36:31.950Z,8.94
2018-01-10T09:37:41.018Z,8.92
2018-01-10T09:38:50.261Z,9.04
2018-01-10T09:39:59.105Z,8.92
2018-01-10T09:41:08.177Z,8.94
2018-01-10T09:42:16.971Z,9.05
2018-01-10T09:43:25.766Z,8.94
2018-01-10T09:44:34.834Z,8.94
2018-01-10T09:45:43.625Z,9.04
2018-01-10T09:46:52.154Z,8.92
2018-01-10T09:48:00.703Z,9.04
2018-01-10T09:49:09.989Z,9.05
2018-01-10T09:50:22.166Z,9.08
2018-01-10T09:51:33.774Z,9.01
2018-01-10T09:52:45.327Z,9.05
2018-01-10T09:53:56.773Z,9.09
2018-01-10T09:55:07.055Z,9.09
2018-01-10T09:56:15.855Z,9.01
2018-01-10T09:57:24.652Z,9.14
2018-01-10T09:58:33.724Z,9.12
2018-01-10T09:59:42.791Z,9.21
2018-01-10T10:00:51.583Z,9.23
2018-01-10T10:02:00.385Z,9.32
2018-01-10T10:03:08.936Z,9.3
2018-01-10T10:04:17.756Z,9.27
2018-01-10T10:05:26.780Z,9.35
2018-01-10T10:06:35.308Z,9.37
2018-01-10T10:07:43.837Z,9.41
2018-01-10T10:08:52.368Z,9.38
2018-01-10T10:10:00.896Z,9.42
2018-01-10T10:11:09.695Z,9.45
2018-01-10T10:12:18.776Z,9.52
2018-01-10T10:13:27.310Z,9.56
2018-01-10T10:14:35.858Z,9.52
2018-01-10T10:15:44.387Z,9.55
2018-01-10T10:16:52.921Z,9.64
2018-01-10T10:18:01.452Z,9.66
2018-01-10T10:19:10.243Z,9.7
2018-01-10T10:20:19.046Z,9.66
2018-01-10T10:21:28.115Z,9.75
2018-01-10T10:22:36.640Z,9.75
2018-01-10T10:23:45.167Z,9.8
2018-01-10T10:24:54.271Z,9.84
2018-01-10T10:26:02.807Z,9.95
2018-01-10T10:27:11.612Z,9.88
2018-01-10T10:28:20.144Z,9.9
2018-01-10T10:29:28.676Z,9.95
2018-01-10T10:30:37.491Z,9.92
2018-01-10T10:31:46.285Z,9.95
2018-01-10T10:32:54.870Z,9.98
2018-01-10T10:34:03.741Z,10.05
2018-01-10T10:35:12.270Z,10.03
2018-01-10T10:36:21.337Z,10.11
2018-01-10T10:37:30.393Z,10.11
2018-01-10T10:38:39.187Z,10.2
2018-01-10T10:39:47.715Z,10.17
2018-01-10T10:40:56.248Z,10.21
2018-01-10T10:42:06.230Z,10.23
2018-01-10T10:43:15.997Z,10.23
2018-01-10T10:44:24.807Z,10.36
2018-01-10T10:45:33.421Z,10.33
2018-01-10T10:46:42.770Z,10.42
2018-01-10T10:47:51.301Z,10.49
2018-01-10T10:48:59.842Z,10.57
2018-01-10T10:50:08.378Z,10.61
2018-01-10T10:51:17.709Z,10.59
2018-01-10T10:52:26.771Z,10.61
2018-01-10T10:53:36.002Z,10.7
2018-01-10T10:54:44.808Z,10.76
2018-01-10T10:55:53.880Z,10.7
2018-01-10T10:57:02.413Z,10.72
2018-01-10T10:58:11.227Z,10.77
2018-01-10T10:59:20.120Z,10.79
2018-01-10T11:00:29.388Z,10.85
2018-01-10T11:01:38.534Z,10.87
2018-01-10T11:02:47.942Z,10.88
2018-01-10T11:03:56.921Z,10.95
2018-01-10T11:05:05.626Z,10.9
2018-01-10T11:06:14.158Z,10.91
2018-01-10T11:07:22.959Z,10.95
2018-01-10T11:08:31.765Z,11.08
2018-01-10T11:09:40.579Z,10.95
2018-01-10T11:10:49.651Z,10.98
2018-01-10T11:11:58.446Z,10.95
2018-01-10T11:13:07.924Z,11.03
2018-01-10T11:14:16.717Z,11.06
2018-01-10T11:15:25.786Z,11.02
2018-01-10T11:16:34.323Z,11.06
2018-01-10T11:17:42.863Z,11.13
2018-01-10T11:18:51.924Z,11.05
2018-01-10T11:20:00.723Z,11.09
2018-01-10T11:21:09.251Z,11.21
2018-01-10T11:22:18.323Z,11.16
2018-01-10T11:23:27.531Z,11.23
2018-01-10T11:24:36.436Z,11.23
2018-01-10T11:25:44.969Z,11.27
2018-01-10T11:26:53.768Z,11.23
2018-01-10T11:28:03.098Z,11.16
2018-01-10T11:29:11.635Z,11.33
2018-01-10T11:30:20.704Z,11.39
2018-01-10T11:31:29.230Z,11.26
2018-01-10T11:32:37.760Z,11.31
2018-01-10T11:33:46.287Z,11.35
2018-01-10T11:34:55.186Z,11.41
2018-01-10T11:36:04.519Z,11.39
2018-01-10T11:37:13.633Z,11.38
2018-01-10T11:38:22.167Z,11.49
2018-01-10T11:39:30.972Z,11.48
2018-01-10T11:40:39.771Z,11.51
2018-01-10T11:41:48.300Z,11.53
2018-01-10T11:42:57.094Z,11.46
2018-01-10T11:44:05.626Z,11.46
2018-01-10T11:45:14.157Z,11.39
2018-01-10T11:46:23.534Z,11.39
2018-01-10T11:47:32.603Z,11.42
2018-01-10T11:48:41.148Z,11.35
2018-01-10T11:49:50.246Z,11.31
2018-01-10T11:50:59.085Z,11.31
2018-01-10T11:52:07.876Z,11.24
2018-01-10T11:53:16.934Z,11.26
2018-01-10T11:54:25.500Z,11.28
2018-01-10T11:55:34.822Z,11.35
2018-01-10T11:56:43.616Z,11.24
2018-01-10T11:57:52.409Z,11.34
2018-01-10T11:59:01.233Z,11.38
2018-01-10T12:00:09.794Z,11.27
2018-01-10T12:01:18.898Z,11.28
2018-01-10T12:02:27.696Z,11.41
2018-01-10T12:03:36.232Z,11.41
2018-01-10T12:04:45.029Z,11.39
2018-01-10T12:05:53.562Z,11.42
2018-01-10T12:07:02.355Z,11.42
2018-01-10T12:08:10.886Z,11.45
2018-01-10T12:09:19.955Z,11.39
2018-01-10T12:10:29.018Z,11.42
2018-01-10T12:11:38.074Z,11.43
2018-01-10T12:12:46.967Z,11.49
2018-01-10T12:13:55.765Z,11.41
2018-01-10T12:15:04.833Z,11.41
2018-01-10T12:16:13.380Z,11.56
2018-01-10T12:17:22.456Z,11.51
2018-01-10T12:18:31.521Z,11.51
2018-01-10T12:19:40.603Z,11.52
2018-01-10T12:20:49.132Z,11.59
2018-01-10T12:21:58.197Z,11.68
2018-01-10T12:23:06.732Z,11.63
2018-01-10T12:24:15.526Z,11.53
2018-01-10T12:25:24.592Z,11.51
2018-01-10T12:26:33.394Z,11.63
2018-01-10T12:27:42.191Z,11.53
2018-01-10T12:28:50.721Z,11.57
2018-01-10T12:29:59.253Z,11.48
2018-01-10T12:31:08.065Z,11.53
2018-01-10T12:32:16.596Z,11.52
2018-01-10T12:33:25.130Z,11.41
2018-01-10T12:34:33.927Z,11.52
2018-01-10T12:35:42.982Z,11.45
2018-01-10T12:36:52.104Z,11.48
2018-01-10T12:38:00.851Z,11.42
2018-01-10T12:39:09.383Z,11.41
2018-01-10T12:40:17.917Z,11.31
2018-01-10T12:41:26.717Z,11.38
2018-01-10T12:42:35.523Z,11.35
2018-01-10T12:43:44.582Z,11.27
2018-01-10T12:44:53.109Z,11.34
2018-01-10T12:46:01.640Z,11.33
2018-01-10T12:47:10.723Z,11.28
2018-01-10T12:48:19.254Z,11.31
2018-01-10T12:49:28.048Z,11.23
2018-01-10T12:50:36.842Z,11.21
2018-01-10T12:51:46.216Z,11.2
2018-01-10T12:52:54.750Z,11.2
2018-01-10T12:54:03.282Z,11.1
2018-01-10T12:55:11.809Z,11.09
2018-01-10T12:56:20.338Z,11.09
2018-01-10T12:57:28.869Z,11.12
2018-01-10T12:58:37.928Z,11.1
2018-01-10T12:59:46.732Z,11.1
2018-01-10T13:00:55.257Z,11.16
2018-01-10T13:02:04.316Z,11.02
2018-01-10T13:03:13.400Z,11.1
2018-01-10T13:04:22.228Z,11.13
2018-01-10T13:05:31.524Z,11.1
2018-01-10T13:06:40.071Z,10.97
2018-01-10T13:07:48.594Z,11.02
2018-01-10T13:08:57.659Z,11.03
2018-01-10T13:10:06.213Z,11
2018-01-10T13:11:14.997Z,10.97
2018-01-10T13:12:24.077Z,10.97
2018-01-10T13:13:32.874Z,11.03
2018-01-10T13:14:41.669Z,11.05
2018-01-10T13:15:50.729Z,11.09
2018-01-10T13:16:59.256Z,11.08
2018-01-10T13:18:08.314Z,10.98
2018-01-10T13:19:17.376Z,10.98
2018-01-10T13:20:26.172Z,10.97
2018-01-10T13:21:35.502Z,10.98
2018-01-10T13:22:44.828Z,10.97
2018-01-10T13:23:53.636Z,10.95
2018-01-10T13:25:02.167Z,11.02
2018-01-10T13:26:10.692Z,11.06
2018-01-10T13:27:19.489Z,10.97
2018-01-10T13:28:28.585Z,11.1
2018-01-10T13:29:37.386Z,11.1
2018-01-10T13:30:46.180Z,11.02
2018-01-10T13:31:54.712Z,11
2018-01-10T13:33:03.507Z,11.06
2018-01-10T13:34:12.302Z,11
2018-01-10T13:35:20.832Z,11.02
2018-01-10T13:36:29.368Z,11
2018-01-10T13:37:38.154Z,11
2018-01-10T13:38:46.954Z,11.06
2018-01-10T13:39:56.021Z,11.03
2018-01-10T13:41:05.055Z,11.16
2018-01-10T13:42:13.879Z,11.05
2018-01-10T13:43:22.940Z,11.05
2018-01-10T13:44:31.489Z,11.06
2018-01-10T13:45:40.267Z,10.95
2018-01-10T13:46:49.327Z,11.03
2018-01-10T13:47:58.129Z,11.03
2018-01-10T13:49:06.929Z,11.03
2018-01-10T13:50:15.994Z,10.92
2018-01-10T13:51:24.796Z,11
2018-01-10T13:52:33.599Z,10.98
2018-01-10T13:53:42.663Z,11.02
2018-01-10T13:54:51.195Z,10.98
2018-01-10T13:56:00.526Z,10.95
2018-01-10T13:57:09.329Z,11.02
2018-01-10T13:58:18.124Z,10.98
2018-01-10T13:59:26.657Z,10.98
2018-01-10T14:00:35.637Z,10.92
2018-01-10T14:01:44.762Z,10.94
2018-01-10T14:02:53.829Z,10.95
2018-01-10T14:04:02.626Z,11.03
2018-01-10T14:05:11.701Z,10.91
2018-01-10T14:06:20.235Z,10.92
2018-01-10T14:07:29.048Z,10.92
2018-01-10T14:08:37.586Z,10.91
2018-01-10T14:09:46.904Z,11.02
2018-01-10T14:10:55.708Z,10.91
2018-01-10T14:12:04.507Z,11.02
2018-01-10T14:13:13.307Z,10.95
2018-01-10T14:14:22.114Z,11.05
2018-01-10T14:15:30.647Z,10.95
2018-01-10T14:16:39.444Z,10.97
2018-01-10T14:17:48.511Z,10.95
2018-01-10T14:18:57.718Z,10.94
2018-01-10T14:20:06.511Z,10.92
2018-01-10T14:21:15.305Z,10.94
2018-01-10T14:22:24.145Z,10.88
2018-01-10T14:23:33.249Z,10.85
2018-01-10T14:24:41.780Z,10.9
2018-01-10T14:25:50.844Z,10.95
2018-01-10T14:26:59.914Z,10.91
2018-01-10T14:28:08.974Z,10.87
2018-01-10T14:29:17.501Z,10.83
2018-01-10T14:30:26.032Z,10.88
2018-01-10T14:31:34.832Z,10.88
2018-01-10T14:32:43.893Z,10.88
2018-01-10T14:33:52.420Z,10.92
2018-01-10T14:35:01.216Z,10.84
2018-01-10T14:36:09.743Z,10.87
2018-01-10T14:37:18.272Z,10.85
2018-01-10T14:38:27.068Z,10.87
2018-01-10T14:39:35.872Z,10.77
2018-01-10T14:40:44.668Z,10.76
2018-01-10T14:41:53.196Z,10.79
2018-01-10T14:43:02.257Z,10.8
2018-01-10T14:44:11.053Z,10.7
2018-01-10T14:45:19.586Z,10.76
2018-01-10T14:46:28.655Z,10.77
2018-01-10T14:47:37.458Z,10.69
2018-01-10T14:48:45.992Z,10.66
2018-01-10T14:49:54.799Z,10.73
2018-01-10T14:51:03.599Z,10.7
2018-01-10T14:52:12.401Z,10.73
2018-01-10T14:53:21.196Z,10.65
2018-01-10T14:54:30.266Z,10.61
2018-01-10T14:55:40.122Z,10.66
2018-01-10T14:56:49.456Z,10.54
2018-01-10T14:57:58.254Z,10.59
2018-01-10T14:59:06.790Z,10.57
2018-01-10T15:00:15.582Z,10.59
2018-01-10T15:01:24.389Z,10.58
2018-01-10T15:02:33.713Z,10.57
2018-01-10T15:03:42.507Z,10.57
2018-01-10T15:04:51.572Z,10.54
2018-01-10T15:06:00.634Z,10.49
2018-01-10T15:07:09.425Z,10.54
2018-01-10T15:08:18.217Z,10.47
2018-01-10T15:09:26.754Z,10.46
2018-01-10T15:10:35.283Z,10.42